Time;durP1;ratioP1;P1;durP2;ratioP2;P2;SDS_P1;SDS_P2;PMS_P1;PMS_P2;Temp;Humidity;BMP_temperature;BMP_pressure;BME280_temperature;BME280_humidity;BME280_pressure;Samples;Min_cycle;Max_cycle;Signal;HPM_P1;HPM_P2
2023/08/04 00:00:49;;;;;;;6.95;4.68;;;;;;;;;;5074643;28;20047;-70
2023/08/04 00:06:21;;;;;;;6.38;4.20;;;;;;;;;;5073066;28;19904;-70
2023/08/04 00:08:47;;;;;;;5.13;4.10;;;;;;;;;;5074638;28;20100;-70
2023/08/04 00:11:16;;;;;;;5.45;4.25;;;;;;;;;;5074713;28;20486;-69
2023/08/04 00:13:46;;;;;;;6.05;4.50;;;;;;;;;;5074510;28;20479;-69
2023/08/04 00:16:18;;;;;;;6.03;4.50;;;;;;;;;;5074685;28;20035;-69
2023/08/04 00:18:44;;;;;;;6.05;4.57;;;;;;;;;;5074729;28;20043;-70
2023/08/04 00:21:11;;;;;;;6.80;4.50;;;;;;;;;;5074663;28;20425;-69
2023/08/04 00:24:00;;;;;;;6.22;4.90;;;;;;;;;;5074423;28;20505;-69
2023/08/04 00:26:32;;;;;;;5.85;4.70;;;;;;;;;;5074430;28;20037;-69
2023/08/04 00:28:58;;;;;;;6.13;4.47;;;;;;;;;;5074330;28;20028;-72
2023/08/04 00:31:24;;;;;;;6.38;4.43;;;;;;;;;;5074088;28;20375;-72
2023/08/04 00:33:50;;;;;;;4.97;4.13;;;;;;;;;;5074269;28;20362;-72
2023/08/04 00:36:17;;;;;;;5.32;4.38;;;;;;;;;;5074235;28;20060;-72
2023/08/04 00:41:30;;;;;;;8.45;5.00;;;;;;;;;;5079100;28;20028;-73
2023/08/04 00:43:56;;;;;;;6.53;4.90;;;;;;;;;;5094604;28;20804;-72
2023/08/04 00:46:23;;;;;;;7.65;4.40;;;;;;;;;;5093781;28;20048;-72
2023/08/04 00:48:49;;;;;;;6.38;4.53;;;;;;;;;;5094032;28;20409;-73
2023/08/04 00:51:15;;;;;;;6.28;4.60;;;;;;;;;;5094027;28;20538;-73
2023/08/04 00:53:52;;;;;;;;;;;;;;;;;;;;;
2023/08/04 00:56:19;;;;;;;6.47;4.78;;;;;;;;;;5094056;28;20022;-72
2023/08/04 00:58:45;;;;;;;7.85;4.97;;;;;;;;;;5094093;28;20490;-72
2023/08/04 01:01:11;;;;;;;5.63;4.30;;;;;;;;;;5093188;28;20024;-72
2023/08/04 01:03:38;;;;;;;6.07;4.47;;;;;;;;;;5094039;28;20420;-72
2023/08/04 01:06:24;;;;;;;7.10;5.07;;;;;;;;;;5094061;28;20036;-72
2023/08/04 01:12:05;;;;;;;5.53;4.53;;;;;;;;;;5089333;28;20584;-73
2023/08/04 01:14:31;;;;;;;6.28;4.78;;;;;;;;;;5089651;28;20020;-73
2023/08/04 01:17:03;;;;;;;5.53;4.65;;;;;;;;;;5089725;28;20086;-73
2023/08/04 01:19:29;;;;;;;7.78;4.70;;;;;;;;;;5089511;28;20427;-73
2023/08/04 01:21:56;;;;;;;5.72;4.72;;;;;;;;;;5089551;28;20032;-73
2023/08/04 01:24:22;;;;;;;6.35;5.13;;;;;;;;;;5089335;28;20078;-73
2023/08/04 01:26:49;;;;;;;6.40;4.70;;;;;;;;;;5089492;28;20462;-73
2023/08/04 01:29:26;;;;;;;6.13;4.55;;;;;;;;;;5089382;28;20382;-72
2023/08/04 01:34:44;;;;;;;6.13;4.65;;;;;;;;;;5089124;28;20551;-70
2023/08/04 01:39:57;;;;;;;6.43;4.72;;;;;;;;;;5060411;28;20033;-69
2023/08/04 01:42:32;;;;;;;8.05;4.85;;;;;;;;;;5089181;28;20032;-70
2023/08/04 01:45:01;;;;;;;5.28;4.60;;;;;;;;;;5088888;28;20463;-70
2023/08/04 01:47:28;;;;;;;5.28;4.45;;;;;;;;;;5088906;28;20029;-69
2023/08/04 01:49:54;;;;;;;5.80;4.60;;;;;;;;;;5088867;28;20462;-69
2023/08/04 01:52:20;;;;;;;5.90;4.72;;;;;;;;;;5088968;28;20029;-70
2023/08/04 01:54:47;;;;;;;5.93;4.45;;;;;;;;;;5088763;28;20029;-69
2023/08/04 01:57:13;;;;;;;5.78;4.70;;;;;;;;;;5088742;28;20463;-69
2023/08/04 01:59:39;;;;;;;4.80;4.20;;;;;;;;;;5088642;28;20059;-70
2023/08/04 02:02:05;;;;;;;7.85;5.15;;;;;;;;;;5088409;28;20024;-69
2023/08/04 02:04:39;;;;;;;6.05;4.75;;;;;;;;;;5088507;28;20024;-69
2023/08/04 02:07:05;;;;;;;5.57;4.43;;;;;;;;;;5088766;28;20467;-69
2023/08/04 02:09:33;;;;;;;6.05;4.65;;;;;;;;;;5088295;28;20544;-70
2023/08/04 02:11:59;;;;;;;6.07;4.55;;;;;;;;;;5068228;28;20502;-69
2023/08/04 02:14:29;;;;;;;5.78;4.80;;;;;;;;;;5068165;28;20024;-70
2023/08/04 02:16:59;;;;;;;5.90;4.57;;;;;;;;;;5068039;28;20017;-69
2023/08/04 02:19:25;;;;;;;9.02;4.82;;;;;;;;;;5067866;28;20463;-70
2023/08/04 02:21:52;;;;;;;5.88;4.45;;;;;;;;;;5062190;28;20028;-70
2023/08/04 02:24:18;;;;;;;6.18;4.40;;;;;;;;;;5054790;28;20040;-71
2023/08/04 02:26:44;;;;;;;6.75;4.57;;;;;;;;;;5054867;28;20121;-70
2023/08/04 02:29:11;;;;;;;5.55;4.60;;;;;;;;;;5054767;28;20032;-70
2023/08/04 02:31:38;;;;;;;6.15;4.65;;;;;;;;;;5054515;28;20029;-70
2023/08/04 02:34:04;;;;;;;9.07;4.63;;;;;;;;;;5054731;28;20060;-70
2023/08/04 02:36:30;;;;;;;5.20;4.70;;;;;;;;;;5054685;28;20467;-70
2023/08/04 02:38:57;;;;;;;5.25;4.50;;;;;;;;;;5054447;28;20036;-70
2023/08/04 02:41:23;;;;;;;5.85;4.07;;;;;;;;;;5054466;28;20360;-70
2023/08/04 02:44:06;;;;;;;5.60;4.47;;;;;;;;;;5054531;28;20526;-70
2023/08/04 02:46:34;;;;;;;5.35;4.25;;;;;;;;;;5054201;28;20029;-70
2023/08/04 02:52:32;;;;;;;6.93;4.60;;;;;;;;;;5054338;28;20165;-70
2023/08/04 02:54:58;;;;;;;6.18;4.60;;;;;;;;;;5054312;28;20032;-70
2023/08/04 02:57:30;;;;;;;6.85;4.47;;;;;;;;;;5054068;28;20025;-69
2023/08/04 03:00:00;;;;;;;5.60;4.40;;;;;;;;;;5054132;28;20032;-70
2023/08/04 03:05:38;;;;;;;5.07;4.30;;;;;;;;;;4990350;28;20060;-73
2023/08/04 03:08:05;;;;;;;5.80;4.70;;;;;;;;;;5039562;28;20367;-73
2023/08/04 03:10:31;;;;;;;6.25;4.43;;;;;;;;;;5061470;28;20390;-73
2023/08/04 03:12:57;;;;;;;4.85;4.18;;;;;;;;;;5074023;28;20466;-73
2023/08/04 03:15:26;;;;;;;7.22;4.50;;;;;;;;;;5073957;28;20052;-73
2023/08/04 03:17:52;;;;;;;6.85;4.72;;;;;;;;;;5073839;28;20359;-70
2023/08/04 03:20:18;;;;;;;6.40;4.30;;;;;;;;;;5073390;28;20387;-69
2023/08/04 03:22:45;;;;;;;7.25;4.80;;;;;;;;;;5073937;28;20470;-69
2023/08/04 03:25:11;;;;;;;5.32;4.60;;;;;;;;;;5073671;28;20501;-69
2023/08/04 03:27:40;;;;;;;5.88;4.50;;;;;;;;;;5073658;28;20034;-69
2023/08/04 03:30:06;;;;;;;5.72;4.75;;;;;;;;;;5073311;28;20020;-70
2023/08/04 03:32:32;;;;;;;5.93;4.40;;;;;;;;;;5073222;28;20086;-69
2023/08/04 03:35:02;;;;;;;8.18;5.00;;;;;;;;;;5072480;28;20020;-69
2023/08/04 03:37:28;;;;;;;5.82;4.40;;;;;;;;;;5073648;28;20531;-70
2023/08/04 03:39:54;;;;;;;8.32;4.80;;;;;;;;;;5073609;28;20448;-70
2023/08/04 03:42:21;;;;;;;5.53;4.72;;;;;;;;;;5073442;28;20501;-70
2023/08/04 03:44:47;;;;;;;6.13;4.47;;;;;;;;;;5073238;28;20546;-69
2023/08/04 03:47:13;;;;;;;7.00;4.32;;;;;;;;;;5073323;28;20131;-69
2023/08/04 03:49:45;;;;;;;6.95;4.88;;;;;;;;;;5073293;28;20040;-69
2023/08/04 03:52:12;;;;;;;5.88;4.38;;;;;;;;;;5073084;28;20036;-69
2023/08/04 03:54:38;;;;;;;8.48;4.90;;;;;;;;;;5073017;28;20148;-69
2023/08/04 03:57:04;;;;;;;6.57;4.85;;;;;;;;;;5073317;28;20032;-70
2023/08/04 03:59:31;;;;;;;7.30;4.60;;;;;;;;;;5072925;28;20028;-69
2023/08/04 04:02:00;;;;;;;6.50;4.60;;;;;;;;;;5072725;28;20497;-70
2023/08/04 04:04:44;;;;;;;8.02;4.80;;;;;;;;;;5073032;28;20032;-70
2023/08/04 04:07:11;;;;;;;7.82;4.97;;;;;;;;;;5072949;28;20017;-69
2023/08/04 04:09:37;;;;;;;6.38;4.80;;;;;;;;;;5072415;28;20035;-69
2023/08/04 04:12:03;;;;;;;9.23;4.65;;;;;;;;;;5072749;28;20504;-70
2023/08/04 04:14:29;;;;;;;6.50;4.68;;;;;;;;;;5072574;28;20485;-70
2023/08/04 04:16:56;;;;;;;6.38;4.63;;;;;;;;;;5072590;28;20024;-70
2023/08/04 04:19:23;;;;;;;6.53;4.63;;;;;;;;;;5072221;28;20074;-70
2023/08/04 04:21:49;;;;;;;9.40;4.95;;;;;;;;;;5072347;28;20024;-70
2023/08/04 04:24:15;;;;;;;6.15;4.88;;;;;;;;;;5072445;28;20039;-70
2023/08/04 04:26:54;;;;;;;6.85;4.85;;;;;;;;;;5072587;28;20513;-70
2023/08/04 04:29:23;;;;;;;6.32;4.78;;;;;;;;;;5072589;28;20688;-70
2023/08/04 04:31:50;;;;;;;6.75;4.80;;;;;;;;;;5072175;28;20039;-69
2023/08/04 04:34:16;;;;;;;7.35;4.80;;;;;;;;;;5072687;28;20066;-69
2023/08/04 04:36:42;;;;;;;8.13;5.10;;;;;;;;;;5072672;28;20592;-69
2023/08/04 04:39:08;;;;;;;7.10;5.18;;;;;;;;;;5072289;28;20031;-70
2023/08/04 04:41:35;;;;;;;6.25;4.65;;;;;;;;;;5072376;28;20032;-70
2023/08/04 04:44:02;;;;;;;8.13;5.00;;;;;;;;;;5072167;28;20032;-72
2023/08/04 04:46:28;;;;;;;6.78;5.00;;;;;;;;;;5072097;28;20040;-72
2023/08/04 04:48:54;;;;;;;7.05;4.60;;;;;;;;;;5072126;28;20036;-73
2023/08/04 04:51:21;;;;;;;7.65;4.78;;;;;;;;;;5072090;28;20028;-73
2023/08/04 04:53:48;;;;;;;9.18;5.25;;;;;;;;;;5071939;28;20020;-73
2023/08/04 04:56:24;;;;;;;;;;;;;;;;;;;;;
2023/08/04 04:58:59;;;;;;;6.90;4.90;;;;;;;;;;5068938;28;20359;-72
2023/08/04 05:01:26;;;;;;;7.10;4.72;;;;;;;;;;5072272;28;20031;-72
2023/08/04 05:03:52;;;;;;;7.18;4.78;;;;;;;;;;5072016;28;20063;-73
2023/08/04 05:06:18;;;;;;;7.78;5.35;;;;;;;;;;5071969;28;20025;-73
2023/08/04 05:08:44;;;;;;;7.55;5.22;;;;;;;;;;5071636;28;20085;-73
2023/08/04 05:11:10;;;;;;;10.13;5.63;;;;;;;;;;5071672;28;20091;-73
2023/08/04 05:13:37;;;;;;;9.10;5.85;;;;;;;;;;5071870;28;20082;-73
2023/08/04 05:16:04;;;;;;;8.40;5.63;;;;;;;;;;5072287;28;20474;-73
2023/08/04 05:18:31;;;;;;;8.27;5.28;;;;;;;;;;5071872;28;20028;-73
2023/08/04 05:23:51;;;;;;;8.85;5.68;;;;;;;;;;5071634;28;20094;-69
2023/08/04 05:26:17;;;;;;;8.55;6.20;;;;;;;;;;5071466;28;20021;-69
2023/08/04 05:34:32;;;;;;;9.77;5.78;;;;;;;;;;5064562;28;19916;-70
2023/08/04 05:36:58;;;;;;;9.35;5.88;;;;;;;;;;5058146;28;20589;-70
2023/08/04 05:39:35;;;;;;;8.95;5.85;;;;;;;;;;5051683;28;20029;-70
2023/08/04 05:42:02;;;;;;;8.02;5.82;;;;;;;;;;5051364;28;20025;-70
2023/08/04 05:44:33;;;;;;;7.90;5.43;;;;;;;;;;5051424;28;20050;-70
2023/08/04 05:47:11;;;;;;;9.48;6.07;;;;;;;;;;5051496;28;20502;-70
2023/08/04 05:49:48;;;;;;;;;;;;;;;;;;;;;
2023/08/04 05:52:20;;;;;;;9.23;5.60;;;;;;;;;;5070938;28;20033;-70
2023/08/04 05:54:56;;;;;;;8.45;5.90;;;;;;;;;;5071410;28;20082;-70
2023/08/04 05:57:22;;;;;;;8.50;6.07;;;;;;;;;;5072611;28;20467;-70
2023/08/04 05:59:54;;;;;;;7.30;5.60;;;;;;;;;;5075250;28;20037;-70
2023/08/04 06:11:14;;;;;;;8.55;5.65;;;;;;;;;;5042128;28;19960;-73
2023/08/04 06:13:40;;;;;;;8.23;5.72;;;;;;;;;;5055009;28;20041;-73
2023/08/04 06:16:07;;;;;;;7.68;5.82;;;;;;;;;;5054843;28;20100;-73
2023/08/04 06:18:33;;;;;;;7.45;5.75;;;;;;;;;;5055127;28;20789;-73
2023/08/04 06:21:21;;;;;;;8.55;5.50;;;;;;;;;;5055218;28;20799;-73
2023/08/04 06:26:38;;;;;;;7.25;5.53;;;;;;;;;;5054708;28;20076;-70
2023/08/04 06:29:37;;;;;;;8.05;5.55;;;;;;;;;;5053894;28;20040;-70
2023/08/04 06:35:06;;;;;;;11.27;5.50;;;;;;;;;;5042849;28;20028;-70
2023/08/04 06:37:32;;;;;;;8.32;5.63;;;;;;;;;;5054438;28;20384;-70
2023/08/04 06:39:59;;;;;;;11.98;5.45;;;;;;;;;;5054466;28;20529;-70
2023/08/04 06:48:44;;;;;;;;;;;;;;;;;;5054766;28;20375;-70
2023/08/04 06:51:36;;;;;;;12.48;6.07;;;;;;;;;;5054167;28;20363;-74
2023/08/04 06:57:18;;;;;;;8.65;5.60;;;;;;;;;;5045347;28;20024;-73
2023/08/04 06:59:44;;;;;;;10.30;5.47;;;;;;;;;;5061113;28;20486;-73
2023/08/04 07:02:23;;;;;;;8.88;5.20;;;;;;;;;;5074178;28;20059;-75
2023/08/04 07:04:49;;;;;;;8.57;5.47;;;;;;;;;;5073915;28;20417;-75
2023/08/04 07:07:16;;;;;;;9.13;5.70;;;;;;;;;;5073774;28;20515;-77
2023/08/04 07:09:48;;;;;;;9.23;5.50;;;;;;;;;;5073991;28;20029;-72
2023/08/04 07:12:18;;;;;;;10.82;5.30;;;;;;;;;;5073904;28;20380;-77
2023/08/04 07:15:30;;;;;;;7.82;4.93;;;;;;;;;;5072592;28;20044;-77
2023/08/04 07:21:31;;;;;;;10.73;5.68;;;;;;;;;;4972869;28;20078;-76
2023/08/04 07:24:01;;;;;;;7.25;5.00;;;;;;;;;;5006968;28;20390;-76
2023/08/04 07:26:27;;;;;;;6.05;4.78;;;;;;;;;;5061526;28;20795;-76
2023/08/04 07:28:57;;;;;;;6.70;4.68;;;;;;;;;;5079034;28;20142;-74
2023/08/04 07:31:23;;;;;;;6.35;4.70;;;;;;;;;;5079811;28;20037;-73
2023/08/04 07:40:07;;;;;;;8.80;4.90;;;;;;;;;;5067830;28;20312;-77
2023/08/04 07:42:37;;;;;;;8.10;4.90;;;;;;;;;;5055357;28;20528;-77
2023/08/04 07:45:23;;;;;;;7.15;4.72;;;;;;;;;;5091038;28;20028;-76
2023/08/04 08:00:22;;;;;;;5.57;4.25;;;;;;;;;;4978707;28;20084;-73
2023/08/04 08:03:09;;;;;;;5.13;4.35;;;;;;;;;;5042578;28;20122;-74
2023/08/04 08:05:47;;;;;;;6.22;4.45;;;;;;;;;;5080743;28;20020;-73
2023/08/04 08:11:21;;;;;;;8.90;4.78;;;;;;;;;;5068222;28;20181;-77
2023/08/04 08:17:37;;;;;;;6.28;4.45;;;;;;;;;;5056940;28;20048;-74
2023/08/04 08:22:57;;;;;;;6.10;4.10;;;;;;;;;;4932637;29;20110;-79
2023/08/04 08:25:47;;;;;;;5.78;4.30;;;;;;;;;;4953466;28;20093;-74
2023/08/04 08:38:02;;;;;;;12.10;4.38;;;;;;;;;;4871427;29;20029;-75
2023/08/04 08:40:54;;;;;;;6.30;3.78;;;;;;;;;;4867525;29;20032;-75
2023/08/04 08:43:50;;;;;;;7.35;4.28;;;;;;;;;;4921404;28;20030;-75
2023/08/04 08:49:47;;;;;;;7.35;4.40;;;;;;;;;;4945790;29;20116;-77
2023/08/04 08:52:17;;;;;;;7.38;4.78;;;;;;;;;;4943889;28;20478;-80
2023/08/04 08:54:44;;;;;;;7.03;4.72;;;;;;;;;;4947441;28;20043;-72
2023/08/04 08:57:11;;;;;;;5.93;4.60;;;;;;;;;;5050132;28;20507;-73
2023/08/04 08:59:48;;;;;;;7.13;4.07;;;;;;;;;;5048077;28;20896;-74
2023/08/04 09:02:17;;;;;;;6.50;4.10;;;;;;;;;;5044097;28;20506;-73
2023/08/04 09:05:02;;;;;;;5.72;4.40;;;;;;;;;;5047728;28;20596;-78
2023/08/04 09:07:28;;;;;;;9.25;4.97;;;;;;;;;;5049477;28;20383;-81
2023/08/04 09:09:54;;;;;;;31.08;9.98;;;;;;;;;;5046600;28;20584;-77
2023/08/04 09:12:21;;;;;;;15.00;6.97;;;;;;;;;;5059948;28;20186;-80
2023/08/04 09:15:06;;;;;;;12.93;6.38;;;;;;;;;;5058190;28;20023;-81
2023/08/04 09:17:33;;;;;;;13.82;6.43;;;;;;;;;;5059922;28;20021;-78
2023/08/04 09:20:01;;;;;;;13.60;6.55;;;;;;;;;;5059404;28;20036;-75
2023/08/04 09:22:34;;;;;;;14.18;6.13;;;;;;;;;;5073824;28;20020;-78
2023/08/04 09:25:02;;;;;;;13.63;6.05;;;;;;;;;;5068143;28;20047;-75
2023/08/04 09:27:41;;;;;;;14.25;6.25;;;;;;;;;;5072886;28;20031;-77
2023/08/04 09:30:08;;;;;;;13.60;6.30;;;;;;;;;;5081945;28;20036;-75
2023/08/04 09:32:41;;;;;;;13.40;5.53;;;;;;;;;;5072975;28;20081;-74
2023/08/04 09:35:12;;;;;;;10.73;5.57;;;;;;;;;;5064927;28;20029;-77
2023/08/04 09:37:39;;;;;;;10.15;5.85;;;;;;;;;;5055872;28;20023;-76
2023/08/04 09:40:13;;;;;;;9.13;5.80;;;;;;;;;;5055207;28;20405;-76
2023/08/04 09:42:47;;;;;;;10.30;5.75;;;;;;;;;;5079545;28;20147;-75
